sensor_id;sensor_type;location;lat;lon;timestamp;temperature;humidity
30288;DHT22;17103;48.316;11.558;2023-03-11T00:00:29;6.00;40.00
30288;DHT22;17103;48.316;11.558;2023-03-11T00:02:56;5.30;39.30
30288;DHT22;17103;48.316;11.558;2023-03-11T00:05:25;5.30;39.30
30288;DHT22;17103;48.316;11.558;2023-03-11T00:07:52;5.30;39.20
30288;DHT22;17103;48.316;11.558;2023-03-11T00:10:29;5.70;39.40
30288;DHT22;17103;48.316;11.558;2023-03-11T00:12:55;5.20;38.90
30288;DHT22;17103;48.316;11.558;2023-03-11T00:15:21;4.40;38.50
30288;DHT22;17103;48.316;11.558;2023-03-11T00:17:47;6.20;39.80
30288;DHT22;17103;48.316;11.558;2023-03-11T00:20:21;5.70;39.20
30288;DHT22;17103;48.316;11.558;2023-03-11T00:22:47;5.20;38.60
30288;DHT22;17103;48.316;11.558;2023-03-11T00:25:19;5.90;38.80
30288;DHT22;17103;48.316;11.558;2023-03-11T00:27:45;5.20;38.30
30288;DHT22;17103;48.316;11.558;2023-03-11T00:30:12;5.20;38.50
30288;DHT22;17103;48.316;11.558;2023-03-11T00:32:39;5.10;38.20
30288;DHT22;17103;48.316;11.558;2023-03-11T00:35:05;5.10;38.30
30288;DHT22;17103;48.316;11.558;2023-03-11T00:37:31;5.20;38.50
30288;DHT22;17103;48.316;11.558;2023-03-11T00:39:58;5.20;38.50
30288;DHT22;17103;48.316;11.558;2023-03-11T00:42:24;5.80;39.10
30288;DHT22;17103;48.316;11.558;2023-03-11T00:44:50;5.30;38.60
30288;DHT22;17103;48.316;11.558;2023-03-11T00:47:15;5.30;38.80
30288;DHT22;17103;48.316;11.558;2023-03-11T00:49:41;5.30;38.40
30288;DHT22;17103;48.316;11.558;2023-03-11T00:52:07;5.90;39.00
30288;DHT22;17103;48.316;11.558;2023-03-11T00:54:33;5.30;38.60
30288;DHT22;17103;48.316;11.558;2023-03-11T00:56:59;5.70;38.90
30288;DHT22;17103;48.316;11.558;2023-03-11T00:59:25;6.20;39.70
30288;DHT22;17103;48.316;11.558;2023-03-11T01:01:50;5.30;38.70
30288;DHT22;17103;48.316;11.558;2023-03-11T01:04:16;5.90;39.00
30288;DHT22;17103;48.316;11.558;2023-03-11T01:06:42;6.00;39.30
30288;DHT22;17103;48.316;11.558;2023-03-11T01:09:07;5.30;38.80
30288;DHT22;17103;48.316;11.558;2023-03-11T01:11:33;5.70;38.70
30288;DHT22;17103;48.316;11.558;2023-03-11T01:13:59;6.00;38.70
30288;DHT22;17103;48.316;11.558;2023-03-11T01:16:24;5.30;38.20
30288;DHT22;17103;48.316;11.558;2023-03-11T01:18:50;5.30;37.80
30288;DHT22;17103;48.316;11.558;2023-03-11T01:21:16;5.50;37.80
30288;DHT22;17103;48.316;11.558;2023-03-11T01:23:41;5.30;37.10
30288;DHT22;17103;48.316;11.558;2023-03-11T01:26:07;5.20;36.70
30288;DHT22;17103;48.316;11.558;2023-03-11T01:28:33;5.20;36.90
30288;DHT22;17103;48.316;11.558;2023-03-11T01:30:59;6.10;37.60
30288;DHT22;17103;48.316;11.558;2023-03-11T01:33:25;5.20;36.70
30288;DHT22;17103;48.316;11.558;2023-03-11T01:35:51;5.70;37.10
30288;DHT22;17103;48.316;11.558;2023-03-11T01:38:17;5.10;36.40
30288;DHT22;17103;48.316;11.558;2023-03-11T01:40:46;5.10;36.20
30288;DHT22;17103;48.316;11.558;2023-03-11T01:46:32;5.00;36.40
30288;DHT22;17103;48.316;11.558;2023-03-11T01:49:04;5.00;36.50
30288;DHT22;17103;48.316;11.558;2023-03-11T01:51:42;5.00;36.40
30288;DHT22;17103;48.316;11.558;2023-03-11T01:54:29;5.00;36.60
30288;DHT22;17103;48.316;11.558;2023-03-11T01:56:57;5.00;36.70
30288;DHT22;17103;48.316;11.558;2023-03-11T01:59:29;5.00;36.70
30288;DHT22;17103;48.316;11.558;2023-03-11T02:02:04;5.40;37.00
30288;DHT22;17103;48.316;11.558;2023-03-11T02:04:33;4.90;36.80
30288;DHT22;17103;48.316;11.558;2023-03-11T02:06:59;6.10;37.70
30288;DHT22;17103;48.316;11.558;2023-03-11T02:09:25;6.00;37.80
30288;DHT22;17103;48.316;11.558;2023-03-11T02:11:51;4.80;37.20
30288;DHT22;17103;48.316;11.558;2023-03-11T02:14:18;4.80;37.20
30288;DHT22;17103;48.316;11.558;2023-03-11T02:16:44;4.80;37.50
30288;DHT22;17103;48.316;11.558;2023-03-11T02:21:51;4.80;37.30
30288;DHT22;17103;48.316;11.558;2023-03-11T02:27:08;4.80;37.30
30288;DHT22;17103;48.316;11.558;2023-03-11T02:29:35;4.70;37.80
30288;DHT22;17103;48.316;11.558;2023-03-11T02:32:05;4.70;37.30
30288;DHT22;17103;48.316;11.558;2023-03-11T02:34:33;4.60;37.30
30288;DHT22;17103;48.316;11.558;2023-03-11T02:37:03;5.40;38.10
30288;DHT22;17103;48.316;11.558;2023-03-11T02:39:36;4.60;37.30
30288;DHT22;17103;48.316;11.558;2023-03-11T02:42:29;4.60;37.50
30288;DHT22;17103;48.316;11.558;2023-03-11T02:45:11;4.60;37.70
30288;DHT22;17103;48.316;11.558;2023-03-11T02:47:39;4.50;37.50
30288;DHT22;17103;48.316;11.558;2023-03-11T02:50:07;5.30;38.30
30288;DHT22;17103;48.316;11.558;2023-03-11T02:52:34;4.50;37.80
30288;DHT22;17103;48.316;11.558;2023-03-11T02:55:01;5.00;38.20
30288;DHT22;17103;48.316;11.558;2023-03-11T02:57:28;5.10;38.30
30288;DHT22;17103;48.316;11.558;2023-03-11T02:59:54;4.50;37.40
30288;DHT22;17103;48.316;11.558;2023-03-11T03:02:19;4.50;37.20
30288;DHT22;17103;48.316;11.558;2023-03-11T03:04:45;4.50;37.30
30288;DHT22;17103;48.316;11.558;2023-03-11T03:07:11;4.50;37.50
30288;DHT22;17103;48.316;11.558;2023-03-11T03:09:36;4.70;37.40
30288;DHT22;17103;48.316;11.558;2023-03-11T03:12:03;5.20;37.90
30288;DHT22;17103;48.316;11.558;2023-03-11T03:14:30;4.40;37.50
30288;DHT22;17103;48.316;11.558;2023-03-11T03:16:56;4.40;37.60
30288;DHT22;17103;48.316;11.558;2023-03-11T03:19:23;5.10;38.00
30288;DHT22;17103;48.316;11.558;2023-03-11T03:21:49;4.40;37.70
30288;DHT22;17103;48.316;11.558;2023-03-11T03:24:14;4.40;37.80
30288;DHT22;17103;48.316;11.558;2023-03-11T03:26:40;4.40;37.80
30288;DHT22;17103;48.316;11.558;2023-03-11T03:29:06;4.30;37.90
30288;DHT22;17103;48.316;11.558;2023-03-11T03:31:31;4.30;38.00
30288;DHT22;17103;48.316;11.558;2023-03-11T03:33:57;4.30;38.10
30288;DHT22;17103;48.316;11.558;2023-03-11T03:36:23;4.30;37.90
30288;DHT22;17103;48.316;11.558;2023-03-11T03:38:54;5.20;39.10
30288;DHT22;17103;48.316;11.558;2023-03-11T03:41:20;4.30;38.10
30288;DHT22;17103;48.316;11.558;2023-03-11T03:43:46;4.30;38.20
30288;DHT22;17103;48.316;11.558;2023-03-11T03:46:12;4.20;38.10
30288;DHT22;17103;48.316;11.558;2023-03-11T03:48:37;4.60;38.60
30288;DHT22;17103;48.316;11.558;2023-03-11T03:51:04;4.20;38.50
30288;DHT22;17103;48.316;11.558;2023-03-11T03:53:32;4.20;38.50
30288;DHT22;17103;48.316;11.558;2023-03-11T03:56:01;4.20;38.60
30288;DHT22;17103;48.316;11.558;2023-03-11T03:58:27;4.20;38.60
30288;DHT22;17103;48.316;11.558;2023-03-11T04:00:57;4.20;38.60
30288;DHT22;17103;48.316;11.558;2023-03-11T04:03:24;5.20;39.40
30288;DHT22;17103;48.316;11.558;2023-03-11T04:05:50;5.10;39.20
30288;DHT22;17103;48.316;11.558;2023-03-11T04:08:15;4.20;38.60
30288;DHT22;17103;48.316;11.558;2023-03-11T04:10:41;4.20;38.80
30288;DHT22;17103;48.316;11.558;2023-03-11T04:13:07;4.20;38.80
30288;DHT22;17103;48.316;11.558;2023-03-11T04:15:32;4.20;38.80
30288;DHT22;17103;48.316;11.558;2023-03-11T04:17:58;4.60;39.10
30288;DHT22;17103;48.316;11.558;2023-03-11T04:20:24;4.70;39.20
30288;DHT22;17103;48.316;11.558;2023-03-11T04:22:49;4.10;39.30
30288;DHT22;17103;48.316;11.558;2023-03-11T04:25:17;4.10;39.40
30288;DHT22;17103;48.316;11.558;2023-03-11T04:27:43;4.00;39.00
30288;DHT22;17103;48.316;11.558;2023-03-11T04:30:11;4.00;39.20
30288;DHT22;17103;48.316;11.558;2023-03-11T04:32:37;4.00;39.10
30288;DHT22;17103;48.316;11.558;2023-03-11T04:35:04;4.00;39.10
30288;DHT22;17103;48.316;11.558;2023-03-11T04:37:30;4.00;39.20
30288;DHT22;17103;48.316;11.558;2023-03-11T04:39:55;4.10;39.20
30288;DHT22;17103;48.316;11.558;2023-03-11T04:42:21;4.80;39.70
30288;DHT22;17103;48.316;11.558;2023-03-11T04:44:48;4.10;39.10
30288;DHT22;17103;48.316;11.558;2023-03-11T04:47:13;4.10;39.10
30288;DHT22;17103;48.316;11.558;2023-03-11T04:49:39;4.10;39.10
30288;DHT22;17103;48.316;11.558;2023-03-11T04:52:05;4.10;39.10
30288;DHT22;17103;48.316;11.558;2023-03-11T04:54:30;4.70;39.60
30288;DHT22;17103;48.316;11.558;2023-03-11T04:56:57;4.10;39.20
30288;DHT22;17103;48.316;11.558;2023-03-11T04:59:23;4.20;39.30
30288;DHT22;17103;48.316;11.558;2023-03-11T05:01:48;4.20;39.40
30288;DHT22;17103;48.316;11.558;2023-03-11T05:04:15;4.20;39.40
30288;DHT22;17103;48.316;11.558;2023-03-11T05:06:41;4.20;39.50
30288;DHT22;17103;48.316;11.558;2023-03-11T05:09:06;4.20;39.60
30288;DHT22;17103;48.316;11.558;2023-03-11T05:11:33;5.30;40.50
30288;DHT22;17103;48.316;11.558;2023-03-11T05:13:59;4.00;39.60
30288;DHT22;17103;48.316;11.558;2023-03-11T05:16:24;4.20;39.70
30288;DHT22;17103;48.316;11.558;2023-03-11T05:18:50;4.10;39.70
30288;DHT22;17103;48.316;11.558;2023-03-11T05:21:17;4.40;40.00
30288;DHT22;17103;48.316;11.558;2023-03-11T05:23:42;4.20;40.00
30288;DHT22;17103;48.316;11.558;2023-03-11T05:26:09;4.60;40.40
30288;DHT22;17103;48.316;11.558;2023-03-11T05:28:36;4.00;40.10
30288;DHT22;17103;48.316;11.558;2023-03-11T05:31:07;3.90;40.10
30288;DHT22;17103;48.316;11.558;2023-03-11T05:33:33;4.80;40.90
30288;DHT22;17103;48.316;11.558;2023-03-11T05:36:08;3.90;40.30
30288;DHT22;17103;48.316;11.558;2023-03-11T05:38:35;3.80;40.00
30288;DHT22;17103;48.316;11.558;2023-03-11T05:41:01;3.80;40.20
30288;DHT22;17103;48.316;11.558;2023-03-11T05:43:27;3.80;40.30
30288;DHT22;17103;48.316;11.558;2023-03-11T05:45:53;4.20;41.70
30288;DHT22;17103;48.316;11.558;2023-03-11T05:48:18;3.60;43.10
30288;DHT22;17103;48.316;11.558;2023-03-11T05:50:44;3.80;45.10
30288;DHT22;17103;48.316;11.558;2023-03-11T05:53:11;3.70;43.40
30288;DHT22;17103;48.316;11.558;2023-03-11T05:55:37;4.90;43.00
30288;DHT22;17103;48.316;11.558;2023-03-11T05:58:03;4.90;43.20
30288;DHT22;17103;48.316;11.558;2023-03-11T06:00:31;5.20;42.40
30288;DHT22;17103;48.316;11.558;2023-03-11T06:02:58;4.50;41.00
30288;DHT22;17103;48.316;11.558;2023-03-11T06:05:24;5.20;41.50
30288;DHT22;17103;48.316;11.558;2023-03-11T06:07:50;4.80;40.80
30288;DHT22;17103;48.316;11.558;2023-03-11T06:10:16;5.00;40.70
30288;DHT22;17103;48.316;11.558;2023-03-11T06:12:42;5.10;40.20
30288;DHT22;17103;48.316;11.558;2023-03-11T06:15:08;6.50;40.80
30288;DHT22;17103;48.316;11.558;2023-03-11T06:17:34;5.30;39.10
30288;DHT22;17103;48.316;11.558;2023-03-11T06:20:01;5.70;39.40
30288;DHT22;17103;48.316;11.558;2023-03-11T06:22:27;6.30;38.30
30288;DHT22;17103;48.316;11.558;2023-03-11T06:24:53;6.30;37.60
30288;DHT22;17103;48.316;11.558;2023-03-11T06:27:22;6.60;38.10
30288;DHT22;17103;48.316;11.558;2023-03-11T06:29:51;5.80;37.90
30288;DHT22;17103;48.316;11.558;2023-03-11T06:32:17;6.90;38.00
30288;DHT22;17103;48.316;11.558;2023-03-11T06:34:43;6.00;38.10
30288;DHT22;17103;48.316;11.558;2023-03-11T06:37:09;5.80;38.00
30288;DHT22;17103;48.316;11.558;2023-03-11T06:39:36;6.10;37.40
30288;DHT22;17103;48.316;11.558;2023-03-11T06:42:03;6.40;37.50
30288;DHT22;17103;48.316;11.558;2023-03-11T06:44:29;6.30;37.10
30288;DHT22;17103;48.316;11.558;2023-03-11T06:46:55;6.80;37.10
30288;DHT22;17103;48.316;11.558;2023-03-11T06:49:20;6.60;36.20
30288;DHT22;17103;48.316;11.558;2023-03-11T06:51:46;6.50;36.50
30288;DHT22;17103;48.316;11.558;2023-03-11T06:54:12;6.50;36.60
30288;DHT22;17103;48.316;11.558;2023-03-11T06:56:38;6.90;36.80
30288;DHT22;17103;48.316;11.558;2023-03-11T06:59:07;7.10;36.40
30288;DHT22;17103;48.316;11.558;2023-03-11T07:01:34;7.30;36.60
30288;DHT22;17103;48.316;11.558;2023-03-11T07:04:02;7.00;35.50
30288;DHT22;17103;48.316;11.558;2023-03-11T07:06:28;6.60;35.20
30288;DHT22;17103;48.316;11.558;2023-03-11T07:08:54;6.90;35.70
30288;DHT22;17103;48.316;11.558;2023-03-11T07:11:25;6.40;35.70
30288;DHT22;17103;48.316;11.558;2023-03-11T07:13:53;6.50;35.80
30288;DHT22;17103;48.316;11.558;2023-03-11T07:16:21;6.50;35.30
30288;DHT22;17103;48.316;11.558;2023-03-11T07:18:49;7.40;36.30
30288;DHT22;17103;48.316;11.558;2023-03-11T07:21:18;6.80;35.30
30288;DHT22;17103;48.316;11.558;2023-03-11T07:23:44;6.30;35.10
30288;DHT22;17103;48.316;11.558;2023-03-11T07:26:12;6.80;35.30
30288;DHT22;17103;48.316;11.558;2023-03-11T07:28:38;6.20;35.10
30288;DHT22;17103;48.316;11.558;2023-03-11T07:31:10;6.60;35.60
30288;DHT22;17103;48.316;11.558;2023-03-11T07:33:36;6.30;35.00
30288;DHT22;17103;48.316;11.558;2023-03-11T07:36:11;6.00;34.90
30288;DHT22;17103;48.316;11.558;2023-03-11T07:38:38;5.70;35.10
30288;DHT22;17103;48.316;11.558;2023-03-11T07:41:04;6.00;35.00
30288;DHT22;17103;48.316;11.558;2023-03-11T07:43:32;6.00;35.50
30288;DHT22;17103;48.316;11.558;2023-03-11T07:46:12;6.00;34.90
30288;DHT22;17103;48.316;11.558;2023-03-11T07:48:40;5.30;34.80
30288;DHT22;17103;48.316;11.558;2023-03-11T07:51:08;6.00;35.00
30288;DHT22;17103;48.316;11.558;2023-03-11T07:53:36;6.10;35.20
30288;DHT22;17103;48.316;11.558;2023-03-11T07:56:02;6.10;34.20
30288;DHT22;17103;48.316;11.558;2023-03-11T07:58:29;6.10;34.00
30288;DHT22;17103;48.316;11.558;2023-03-11T08:01:01;6.10;34.40
30288;DHT22;17103;48.316;11.558;2023-03-11T08:03:29;6.40;34.10
30288;DHT22;17103;48.316;11.558;2023-03-11T08:05:58;6.60;34.40
30288;DHT22;17103;48.316;11.558;2023-03-11T08:08:46;5.90;34.00
30288;DHT22;17103;48.316;11.558;2023-03-11T08:12:02;5.80;33.90
30288;DHT22;17103;48.316;11.558;2023-03-11T08:14:28;5.70;34.00
30288;DHT22;17103;48.316;11.558;2023-03-11T08:16:58;5.90;34.30
30288;DHT22;17103;48.316;11.558;2023-03-11T08:19:27;5.60;33.80
30288;DHT22;17103;48.316;11.558;2023-03-11T08:21:54;5.60;33.80
30288;DHT22;17103;48.316;11.558;2023-03-11T08:24:20;5.50;33.90
30288;DHT22;17103;48.316;11.558;2023-03-11T08:26:45;5.50;34.10
30288;DHT22;17103;48.316;11.558;2023-03-11T08:29:12;5.80;34.40
30288;DHT22;17103;48.316;11.558;2023-03-11T08:31:38;5.40;34.20
30288;DHT22;17103;48.316;11.558;2023-03-11T08:34:06;6.30;34.30
30288;DHT22;17103;48.316;11.558;2023-03-11T08:36:33;5.30;33.70
30288;DHT22;17103;48.316;11.558;2023-03-11T08:38:59;5.20;33.70
30288;DHT22;17103;48.316;11.558;2023-03-11T08:41:25;5.60;33.80
30288;DHT22;17103;48.316;11.558;2023-03-11T08:43:51;5.70;34.10
30288;DHT22;17103;48.316;11.558;2023-03-11T08:46:26;5.80;34.50
30288;DHT22;17103;48.316;11.558;2023-03-11T08:48:52;5.10;33.80
30288;DHT22;17103;48.316;11.558;2023-03-11T08:51:19;5.10;34.00
30288;DHT22;17103;48.316;11.558;2023-03-11T08:53:45;5.10;34.30
30288;DHT22;17103;48.316;11.558;2023-03-11T08:56:11;5.10;34.30
30288;DHT22;17103;48.316;11.558;2023-03-11T08:58:36;5.10;34.20
30288;DHT22;17103;48.316;11.558;2023-03-11T09:01:03;5.10;34.30
30288;DHT22;17103;48.316;11.558;2023-03-11T09:03:33;5.20;34.60
30288;DHT22;17103;48.316;11.558;2023-03-11T09:06:00;5.20;34.50
30288;DHT22;17103;48.316;11.558;2023-03-11T09:08:27;5.80;34.90
30288;DHT22;17103;48.316;11.558;2023-03-11T09:10:53;5.30;34.80
30288;DHT22;17103;48.316;11.558;2023-03-11T09:13:19;5.30;34.50
30288;DHT22;17103;48.316;11.558;2023-03-11T09:15:48;5.40;34.60
30288;DHT22;17103;48.316;11.558;2023-03-11T09:18:14;6.10;34.80
30288;DHT22;17103;48.316;11.558;2023-03-11T09:20:42;5.80;34.00
30288;DHT22;17103;48.316;11.558;2023-03-11T09:23:11;5.60;34.40
30288;DHT22;17103;48.316;11.558;2023-03-11T09:25:37;5.50;33.70
30288;DHT22;17103;48.316;11.558;2023-03-11T09:28:03;6.20;33.80
30288;DHT22;17103;48.316;11.558;2023-03-11T09:30:29;5.60;33.90
30288;DHT22;17103;48.316;11.558;2023-03-11T09:32:55;5.60;34.20
30288;DHT22;17103;48.316;11.558;2023-03-11T09:35:20;6.00;35.00
30288;DHT22;17103;48.316;11.558;2023-03-11T09:37:46;5.70;33.20
30288;DHT22;17103;48.316;11.558;2023-03-11T09:40:16;5.70;32.00
30288;DHT22;17103;48.316;11.558;2023-03-11T09:42:58;5.70;32.90
30288;DHT22;17103;48.316;11.558;2023-03-11T09:45:29;5.70;33.40
30288;DHT22;17103;48.316;11.558;2023-03-11T09:48:03;5.80;34.00
30288;DHT22;17103;48.316;11.558;2023-03-11T09:50:52;5.80;34.20
30288;DHT22;17103;48.316;11.558;2023-03-11T09:53:40;5.90;34.10
30288;DHT22;17103;48.316;11.558;2023-03-11T09:56:16;5.90;33.50
30288;DHT22;17103;48.316;11.558;2023-03-11T09:58:47;6.60;34.40
30288;DHT22;17103;48.316;11.558;2023-03-11T10:01:34;6.70;34.40
30288;DHT22;17103;48.316;11.558;2023-03-11T10:04:25;6.10;33.90
30288;DHT22;17103;48.316;11.558;2023-03-11T10:06:51;6.30;33.60
30288;DHT22;17103;48.316;11.558;2023-03-11T10:09:47;6.60;34.10
30288;DHT22;17103;48.316;11.558;2023-03-11T10:15:22;6.10;34.60
30288;DHT22;17103;48.316;11.558;2023-03-11T10:23:36;6.20;33.20
30288;DHT22;17103;48.316;11.558;2023-03-11T10:26:28;6.20;32.80
30288;DHT22;17103;48.316;11.558;2023-03-11T10:29:13;6.20;32.20
30288;DHT22;17103;48.316;11.558;2023-03-11T10:35:25;6.20;32.60
30288;DHT22;17103;48.316;11.558;2023-03-11T10:42:01;6.40;32.60
30288;DHT22;17103;48.316;11.558;2023-03-11T10:44:34;6.90;32.30
30288;DHT22;17103;48.316;11.558;2023-03-11T10:47:27;6.50;31.00
30288;DHT22;17103;48.316;11.558;2023-03-11T10:54:07;6.40;30.30
30288;DHT22;17103;48.316;11.558;2023-03-11T10:56:56;6.30;31.40
30288;DHT22;17103;48.316;11.558;2023-03-11T11:03:18;6.40;32.90
30288;DHT22;17103;48.316;11.558;2023-03-11T11:06:05;6.30;33.20
30288;DHT22;17103;48.316;11.558;2023-03-11T11:08:32;6.40;33.30
30288;DHT22;17103;48.316;11.558;2023-03-11T11:11:25;6.40;33.40
30288;DHT22;17103;48.316;11.558;2023-03-11T11:13:57;6.40;33.50
30288;DHT22;17103;48.316;11.558;2023-03-11T11:16:24;6.50;33.50
30288;DHT22;17103;48.316;11.558;2023-03-11T11:19:01;6.50;33.30
30288;DHT22;17103;48.316;11.558;2023-03-11T11:21:37;6.50;33.20
30288;DHT22;17103;48.316;11.558;2023-03-11T11:24:27;6.20;33.20
30288;DHT22;17103;48.316;11.558;2023-03-11T11:27:19;6.90;33.80
30288;DHT22;17103;48.316;11.558;2023-03-11T11:29:46;6.40;33.20
30288;DHT22;17103;48.316;11.558;2023-03-11T11:32:39;7.20;33.80
30288;DHT22;17103;48.316;11.558;2023-03-11T11:35:10;7.20;33.80
30288;DHT22;17103;48.316;11.558;2023-03-11T11:37:39;6.40;33.50
30288;DHT22;17103;48.316;11.558;2023-03-11T11:43:53;6.50;33.90
30288;DHT22;17103;48.316;11.558;2023-03-11T11:47:10;6.50;34.10
30288;DHT22;17103;48.316;11.558;2023-03-11T11:49:47;7.60;34.80
30288;DHT22;17103;48.316;11.558;2023-03-11T11:52:35;7.50;34.20
30288;DHT22;17103;48.316;11.558;2023-03-11T11:55:34;7.40;32.80
30288;DHT22;17103;48.316;11.558;2023-03-11T11:58:00;6.90;32.50
30288;DHT22;17103;48.316;11.558;2023-03-11T12:00:44;7.20;32.90
30288;DHT22;17103;48.316;11.558;2023-03-11T12:03:24;7.40;32.60
30288;DHT22;17103;48.316;11.558;2023-03-11T12:05:59;6.50;31.80
30288;DHT22;17103;48.316;11.558;2023-03-11T12:08:41;6.50;32.40
30288;DHT22;17103;48.316;11.558;2023-03-11T12:14:28;6.60;31.70
30288;DHT22;17103;48.316;11.558;2023-03-11T12:17:01;6.70;32.00
30288;DHT22;17103;48.316;11.558;2023-03-11T12:27:45;6.90;32.00
30288;DHT22;17103;48.316;11.558;2023-03-11T12:30:29;7.00;32.90
30288;DHT22;17103;48.316;11.558;2023-03-11T12:33:02;6.90;32.90
30288;DHT22;17103;48.316;11.558;2023-03-11T12:35:31;7.40;33.70
30288;DHT22;17103;48.316;11.558;2023-03-11T12:38:27;6.80;33.30
30288;DHT22;17103;48.316;11.558;2023-03-11T12:41:00;6.90;33.40
30288;DHT22;17103;48.316;11.558;2023-03-11T12:45:57;7.00;33.80
30288;DHT22;17103;48.316;11.558;2023-03-11T12:48:34;7.70;34.30
30288;DHT22;17103;48.316;11.558;2023-03-11T12:51:00;7.00;33.60
30288;DHT22;17103;48.316;11.558;2023-03-11T12:53:45;7.10;33.70
30288;DHT22;17103;48.316;11.558;2023-03-11T13:12:47;7.60;32.30
30288;DHT22;17103;48.316;11.558;2023-03-11T13:18:01;7.90;33.20
30288;DHT22;17103;48.316;11.558;2023-03-11T13:25:42;8.10;31.70
30288;DHT22;17103;48.316;11.558;2023-03-11T13:28:57;8.20;32.30
30288;DHT22;17103;48.316;11.558;2023-03-11T13:34:38;8.80;31.50
30288;DHT22;17103;48.316;11.558;2023-03-11T13:37:16;8.60;31.70
30288;DHT22;17103;48.316;11.558;2023-03-11T13:39:55;8.70;31.80
30288;DHT22;17103;48.316;11.558;2023-03-11T13:45:20;8.90;31.30
30288;DHT22;17103;48.316;11.558;2023-03-11T13:47:48;9.00;30.80
30288;DHT22;17103;48.316;11.558;2023-03-11T13:50:42;9.10;30.90
30288;DHT22;17103;48.316;11.558;2023-03-11T13:53:22;9.20;31.00
30288;DHT22;17103;48.316;11.558;2023-03-11T13:56:02;9.20;30.60
30288;DHT22;17103;48.316;11.558;2023-03-11T13:58:31;9.30;30.00
30288;DHT22;17103;48.316;11.558;2023-03-11T14:01:00;9.30;30.00
30288;DHT22;17103;48.316;11.558;2023-03-11T14:03:33;9.30;30.40
30288;DHT22;17103;48.316;11.558;2023-03-11T14:06:02;9.40;30.50
30288;DHT22;17103;48.316;11.558;2023-03-11T14:08:34;9.50;29.90
30288;DHT22;17103;48.316;11.558;2023-03-11T14:13:45;10.40;30.10
30288;DHT22;17103;48.316;11.558;2023-03-11T14:16:31;9.60;30.30
30288;DHT22;17103;48.316;11.558;2023-03-11T14:22:23;9.70;30.00
30288;DHT22;17103;48.316;11.558;2023-03-11T14:28:19;9.80;30.50
30288;DHT22;17103;48.316;11.558;2023-03-11T14:31:00;10.00;29.20
30288;DHT22;17103;48.316;11.558;2023-03-11T14:33:26;10.10;29.10
30288;DHT22;17103;48.316;11.558;2023-03-11T14:36:26;10.80;29.60
30288;DHT22;17103;48.316;11.558;2023-03-11T14:38:52;10.20;28.70
30288;DHT22;17103;48.316;11.558;2023-03-11T14:41:18;11.10;29.30
30288;DHT22;17103;48.316;11.558;2023-03-11T14:43:46;10.20;28.90
30288;DHT22;17103;48.316;11.558;2023-03-11T14:46:34;10.30;29.90
30288;DHT22;17103;48.316;11.558;2023-03-11T14:49:03;10.40;28.90
30288;DHT22;17103;48.316;11.558;2023-03-11T14:51:32;10.50;29.40
30288;DHT22;17103;48.316;11.558;2023-03-11T14:54:16;10.50;29.50
30288;DHT22;17103;48.316;11.558;2023-03-11T14:56:48;10.60;28.70
30288;DHT22;17103;48.316;11.558;2023-03-11T14:59:27;10.70;29.40
30288;DHT22;17103;48.316;11.558;2023-03-11T15:04:58;10.90;29.60
30288;DHT22;17103;48.316;11.558;2023-03-11T15:07:26;11.00;28.70
30288;DHT22;17103;48.316;11.558;2023-03-11T15:09:52;11.10;28.90
30288;DHT22;17103;48.316;11.558;2023-03-11T15:12:40;11.10;29.40
30288;DHT22;17103;48.316;11.558;2023-03-11T15:15:26;11.20;30.50
30288;DHT22;17103;48.316;11.558;2023-03-11T15:17:55;11.30;28.90
30288;DHT22;17103;48.316;11.558;2023-03-11T15:24:24;11.40;29.60
30288;DHT22;17103;48.316;11.558;2023-03-11T15:27:33;11.50;30.80
30288;DHT22;17103;48.316;11.558;2023-03-11T15:30:00;11.70;29.20
30288;DHT22;17103;48.316;11.558;2023-03-11T15:35:56;11.90;29.40
30288;DHT22;17103;48.316;11.558;2023-03-11T15:38:25;12.00;30.50
30288;DHT22;17103;48.316;11.558;2023-03-11T15:41:02;13.00;30.00
30288;DHT22;17103;48.316;11.558;2023-03-11T15:43:31;12.30;29.50
30288;DHT22;17103;48.316;11.558;2023-03-11T15:46:01;12.40;29.60
30288;DHT22;17103;48.316;11.558;2023-03-11T15:48:29;12.90;28.70
30288;DHT22;17103;48.316;11.558;2023-03-11T15:51:01;12.60;29.50
30288;DHT22;17103;48.316;11.558;2023-03-11T15:53:29;12.80;30.00
30288;DHT22;17103;48.316;11.558;2023-03-11T15:56:16;12.90;29.50
30288;DHT22;17103;48.316;11.558;2023-03-11T15:59:43;13.10;28.50
30288;DHT22;17103;48.316;11.558;2023-03-11T16:02:31;13.10;28.80
30288;DHT22;17103;48.316;11.558;2023-03-11T16:05:23;13.40;29.00
30288;DHT22;17103;48.316;11.558;2023-03-11T16:07:50;13.20;29.30
30288;DHT22;17103;48.316;11.558;2023-03-11T16:10:19;13.40;29.60
30288;DHT22;17103;48.316;11.558;2023-03-11T16:16:16;13.30;27.60
30288;DHT22;17103;48.316;11.558;2023-03-11T16:18:43;13.70;28.10
30288;DHT22;17103;48.316;11.558;2023-03-11T16:24:20;13.20;27.80
30288;DHT22;17103;48.316;11.558;2023-03-11T16:26:49;13.20;27.10
30288;DHT22;17103;48.316;11.558;2023-03-11T16:29:35;12.90;27.70
30288;DHT22;17103;48.316;11.558;2023-03-11T16:32:01;13.10;27.50
30288;DHT22;17103;48.316;11.558;2023-03-11T16:34:26;12.50;26.90
30288;DHT22;17103;48.316;11.558;2023-03-11T16:36:52;12.30;26.70
30288;DHT22;17103;48.316;11.558;2023-03-11T16:39:18;12.20;26.70
30288;DHT22;17103;48.316;11.558;2023-03-11T16:41:43;11.80;26.90
30288;DHT22;17103;48.316;11.558;2023-03-11T16:44:09;11.70;27.30
30288;DHT22;17103;48.316;11.558;2023-03-11T16:46:37;11.50;27.60
30288;DHT22;17103;48.316;11.558;2023-03-11T16:49:04;11.40;27.70
30288;DHT22;17103;48.316;11.558;2023-03-11T16:51:30;11.20;27.80
30288;DHT22;17103;48.316;11.558;2023-03-11T16:53:59;11.70;28.20
30288;DHT22;17103;48.316;11.558;2023-03-11T16:56:26;11.00;27.70
30288;DHT22;17103;48.316;11.558;2023-03-11T16:58:53;10.90;27.80
30288;DHT22;17103;48.316;11.558;2023-03-11T17:01:19;10.80;27.80
30288;DHT22;17103;48.316;11.558;2023-03-11T17:03:47;10.70;27.90
30288;DHT22;17103;48.316;11.558;2023-03-11T17:06:16;10.70;28.00
30288;DHT22;17103;48.316;11.558;2023-03-11T17:08:42;10.60;27.90
30288;DHT22;17103;48.316;11.558;2023-03-11T17:11:18;10.50;28.10
30288;DHT22;17103;48.316;11.558;2023-03-11T17:13:45;10.40;28.40
30288;DHT22;17103;48.316;11.558;2023-03-11T17:16:12;10.40;28.00
30288;DHT22;17103;48.316;11.558;2023-03-11T17:18:45;10.40;28.10
30288;DHT22;17103;48.316;11.558;2023-03-11T17:21:12;10.30;28.00
30288;DHT22;17103;48.316;11.558;2023-03-11T17:23:39;10.20;28.20
30288;DHT22;17103;48.316;11.558;2023-03-11T17:26:11;10.20;28.30
30288;DHT22;17103;48.316;11.558;2023-03-11T17:28:37;10.00;28.00
30288;DHT22;17103;48.316;11.558;2023-03-11T17:31:04;11.30;29.10
30288;DHT22;17103;48.316;11.558;2023-03-11T17:33:32;9.90;28.90
30288;DHT22;17103;48.316;11.558;2023-03-11T17:36:07;9.90;29.00